Terminal Aerodrome Forecast
Issued by NWS

Home | Current Version | Previous Version | Graphics & Text | Print | Product List | Glossary On
Versions: 1 2 3 4 5 6 7 8 9 10 11 12 13 14 15 16
000
FTUS43 KGRB 212332
TAFCWA
TAF
KCWA 212332Z 2200/2224 19009KT P6SM SCT060
     FM220300 17006KT P6SM BKN045 WS020/26035KT
      TEMPO 2203/2207 2SM TSRA BKN022CB
     FM220700 20005KT P6SM -SHRA BKN040 WS020/29030KT
     FM221200 24006KT P6SM BKN040
     FM221700 28006KT P6SM BKN040 PROB30 2218/2222 1SM TSRA BKN022CB
      AMD LTD TO CLD VIS AND WIND 2203/2211=

USA.gov is the U.S. government's official web portal to all federal, state and local government web resources and services.